Time;durP1;ratioP1;P1;durP2;ratioP2;P2;SDS_P1;SDS_P2;PMS_P1;PMS_P2;Temp;Humidity;BMP_temperature;BMP_pressure;BME280_temperature;BME280_humidity;BME280_pressure;Samples;Min_cycle;Max_cycle;Signal;HPM_P1;HPM_P2
2021/10/31 00:02:18;;;;;;;;;;;;;;;;;;5009776;28;20347;-67
2021/10/31 00:04:45;;;;;;;;;;;;;;;;;;5012086;28;19972;-67
2021/10/31 00:07:12;;;;;;;;;;;;;;;;;;5010620;28;19934;-66
2021/10/31 00:09:39;;;;;;;;;;;;;;;;;;5010521;28;19926;-67
2021/10/31 00:12:06;;;;;;;;;;;;;;;;;;5011893;28;19925;-69
2021/10/31 00:14:32;;;;;;;;;;;;;;;;;;5007839;28;20309;-67
2021/10/31 00:16:59;;;;;;;;;;;;;;;;;;5013603;28;20113;-68
2021/10/31 00:19:26;;;;;;;;;;;;;;;;;;5013007;28;19933;-66
2021/10/31 00:21:53;;;;;;;;;;;;;;;;;;5010890;28;19935;-69
2021/10/31 00:24:20;;;;;;;;;;;;;;;;;;5013711;28;20212;-69
2021/10/31 00:26:47;;;;;;;;;;;;;;;;;;5007090;28;19925;-68
2021/10/31 00:29:14;;;;;;;;;;;;;;;;;;5012970;28;19925;-68
2021/10/31 00:31:41;;;;;;;;;;;;;;;;;;5016814;28;20305;-68
2021/10/31 00:34:08;;;;;;;;;;;;;;;;;;5014464;28;19936;-69
2021/10/31 00:36:36;;;;;;;;;;;;;;;;;;5011471;28;19929;-68
2021/10/31 00:39:03;;;;;;;;;;;;;;;;;;5009060;28;20309;-68
2021/10/31 00:41:30;;;;;;;;;;;;;;;;;;5010493;28;19932;-69
2021/10/31 00:43:57;;;;;;;;;;;;;;;;;;5012807;28;19926;-68
2021/10/31 00:46:24;;;;;;;;;;;;;;;;;;5012868;28;19925;-69
2021/10/31 00:48:51;;;;;;;;;;;;;;;;;;5018609;28;19985;-69
2021/10/31 00:51:18;;;;;;;;;;;;;;;;;;5018637;28;19926;-70
2021/10/31 00:53:45;;;;;;;;;;;;;;;;;;5009544;28;20301;-67
2021/10/31 00:56:12;;;;;;;;;;;;;;;;;;5013571;28;19925;-68
2021/10/31 00:58:39;;;;;;;;;;;;;;;;;;5012622;28;19926;-68
2021/10/31 01:01:06;;;;;;;;;;;;;;;;;;5014946;28;20325;-69
2021/10/31 01:03:33;;;;;;;;;;;;;;;;;;5009474;28;19930;-69
2021/10/31 01:06:00;;;;;;;;;;;;;;;;;;5009629;28;19925;-69
2021/10/31 01:08:27;;;;;;;;;;;;;;;;;;5012687;28;20382;-69
2021/10/31 01:10:56;;;;;;;;;;;;;;;;;;5011663;28;19930;-69
2021/10/31 01:13:23;;;;;;;;;;;;;;;;;;5011932;28;19979;-70
2021/10/31 01:15:50;;;;;;;;;;;;;;;;;;5018175;28;19925;-67
2021/10/31 01:18:17;;;;;;;;;;;;;;;;;;5016644;28;19957;-68
2021/10/31 01:20:44;;;;;;;;;;;;;;;;;;5018848;28;19936;-69
2021/10/31 01:23:10;;;;;;;;;;;;;;;;;;5015832;28;19925;-68
2021/10/31 01:25:37;;;;;;;;;;;;;;;;;;5016874;28;19925;-67
2021/10/31 01:28:04;;;;;;;;;;;;;;;;;;5014362;28;19926;-68
2021/10/31 01:30:31;;;;;;;;;;;;;;;;;;5017381;28;19931;-68
2021/10/31 01:32:58;;;;;;;;;;;;;;;;;;5012774;28;20408;-69
2021/10/31 01:35:25;;;;;;;;;;;;;;;;;;5014208;28;19932;-69
2021/10/31 01:37:52;;;;;;;;;;;;;;;;;;5022346;28;19926;-69
2021/10/31 01:40:19;;;;;;;;;;;;;;;;;;5015536;28;20320;-69
2021/10/31 01:42:47;;;;;;;;;;;;;;;;;;5011630;28;19925;-68
2021/10/31 01:45:14;;;;;;;;;;;;;;;;;;5012703;28;20377;-69
2021/10/31 01:47:41;;;;;;;;;;;;;;;;;;5012586;28;19933;-68
2021/10/31 01:50:07;;;;;;;;;;;;;;;;;;5017726;28;19925;-68
2021/10/31 01:52:34;;;;;;;;;;;;;;;;;;5018404;28;20404;-67
2021/10/31 01:55:02;;;;;;;;;;;;;;;;;;5019815;28;20297;-66
2021/10/31 01:57:29;;;;;;;;;;;;;;;;;;5022283;28;19932;-67
2021/10/31 01:59:56;;;;;;;;;;;;;;;;;;5014697;28;19926;-69
2021/10/31 02:02:23;;;;;;;;;;;;;;;;;;5016011;28;20356;-68
2021/10/31 02:04:49;;;;;;;;;;;;;;;;;;5015367;28;19925;-69
2021/10/31 02:07:16;;;;;;;;;;;;;;;;;;5009086;28;19931;-69
2021/10/31 02:09:43;;;;;;;;;;;;;;;;;;5011102;28;19925;-68
2021/10/31 02:12:12;;;;;;;;;;;;;;;;;;5016234;28;19933;-67
2021/10/31 02:14:39;;;;;;;;;;;;;;;;;;5015322;28;19925;-68
2021/10/31 02:17:05;;;;;;;;;;;;;;;;;;5014507;28;20297;-69
2021/10/31 02:19:32;;;;;;;;;;;;;;;;;;5016087;28;20309;-69
2021/10/31 02:21:59;;;;;;;;;;;;;;;;;;5014718;28;20258;-68
2021/10/31 02:24:26;;;;;;;;;;;;;;;;;;5016778;28;19925;-69
2021/10/31 02:26:53;;;;;;;;;;;;;;;;;;5018927;28;19926;-69
2021/10/31 02:29:20;;;;;;;;;;;;;;;;;;5019053;28;19935;-68
2021/10/31 02:31:47;;;;;;;;;;;;;;;;;;5015822;28;19926;-69
2021/10/31 02:34:14;;;;;;;;;;;;;;;;;;5012474;28;20475;-68
2021/10/31 02:36:41;;;;;;;;;;;;;;;;;;5014530;28;19932;-69
2021/10/31 02:39:08;;;;;;;;;;;;;;;;;;5015906;28;19925;-68
2021/10/31 02:41:35;;;;;;;;;;;;;;;;;;5017750;28;20169;-69
2021/10/31 02:44:02;;;;;;;;;;;;;;;;;;5013554;28;19926;-68
2021/10/31 02:46:29;;;;;;;;;;;;;;;;;;5019259;28;20120;-68
2021/10/31 02:48:56;;;;;;;;;;;;;;;;;;5015249;28;19929;-67
2021/10/31 02:51:23;;;;;;;;;;;;;;;;;;5020498;28;19926;-68
2021/10/31 02:53:50;;;;;;;;;;;;;;;;;;5010950;28;19925;-68
2021/10/31 02:56:17;;;;;;;;;;;;;;;;;;5015691;28;19925;-68
2021/10/31 02:58:44;;;;;;;;;;;;;;;;;;5008463;28;19929;-68
2021/10/31 03:01:10;;;;;;;;;;;;;;;;;;5012854;28;19933;-67
2021/10/31 03:03:37;;;;;;;;;;;;;;;;;;5011086;28;19925;-69
2021/10/31 03:06:04;;;;;;;;;;;;;;;;;;5014268;28;20021;-68
2021/10/31 03:08:31;;;;;;;;;;;;;;;;;;5012588;28;20267;-67
2021/10/31 03:10:58;;;;;;;;;;;;;;;;;;5022893;28;19929;-68
2021/10/31 03:13:25;;;;;;;;;;;;;;;;;;5013316;28;20448;-68
2021/10/31 03:15:52;;;;;;;;;;;;;;;;;;5011760;28;20286;-69
2021/10/31 03:18:19;;;;;;;;;;;;;;;;;;5013855;28;19926;-69
2021/10/31 03:20:46;;;;;;;;;;;;;;;;;;5015257;28;19932;-69
2021/10/31 03:23:13;;;;;;;;;;;;;;;;;;5015134;28;19926;-69
2021/10/31 03:25:40;;;;;;;;;;;;;;;;;;5014774;28;20013;-68
2021/10/31 03:28:07;;;;;;;;;;;;;;;;;;5011019;28;19934;-70
2021/10/31 03:30:34;;;;;;;;;;;;;;;;;;5018701;28;20025;-68
2021/10/31 03:33:01;;;;;;;;;;;;;;;;;;5014633;28;19925;-70
2021/10/31 03:35:28;;;;;;;;;;;;;;;;;;5014710;28;19932;-69
2021/10/31 03:37:55;;;;;;;;;;;;;;;;;;5014872;28;20423;-69
2021/10/31 03:40:22;;;;;;;;;;;;;;;;;;5017737;28;20301;-68
2021/10/31 03:42:50;;;;;;;;;;;;;;;;;;5013481;28;19926;-68
2021/10/31 03:45:17;;;;;;;;;;;;;;;;;;5011596;28;19926;-68
2021/10/31 03:47:46;;;;;;;;;;;;;;;;;;5013359;28;20398;-70
2021/10/31 03:50:14;;;;;;;;;;;;;;;;;;5018445;28;20020;-68
2021/10/31 03:52:41;;;;;;;;;;;;;;;;;;5015580;28;19926;-67
2021/10/31 03:55:08;;;;;;;;;;;;;;;;;;5012216;28;19932;-69
2021/10/31 03:57:35;;;;;;;;;;;;;;;;;;5011616;28;19933;-70
2021/10/31 04:00:02;;;;;;;;;;;;;;;;;;5010402;28;19925;-68
2021/10/31 04:02:29;;;;;;;;;;;;;;;;;;5015614;28;19976;-69
2021/10/31 04:04:56;;;;;;;;;;;;;;;;;;5009078;28;19956;-69
2021/10/31 04:07:23;;;;;;;;;;;;;;;;;;5015297;28;19932;-68
2021/10/31 04:09:50;;;;;;;;;;;;;;;;;;5013487;28;19926;-68
2021/10/31 04:12:17;;;;;;;;;;;;;;;;;;5009480;28;19925;-71
2021/10/31 04:14:44;;;;;;;;;;;;;;;;;;5011776;28;20227;-68
2021/10/31 04:17:11;;;;;;;;;;;;;;;;;;5012667;28;20404;-69
2021/10/31 04:19:38;;;;;;;;;;;;;;;;;;5010716;28;19925;-69
2021/10/31 04:22:05;;;;;;;;;;;;;;;;;;5014162;28;19948;-68
2021/10/31 04:24:32;;;;;;;;;;;;;;;;;;5012217;28;19933;-69
2021/10/31 04:26:59;;;;;;;;;;;;;;;;;;5015743;28;19925;-69
2021/10/31 04:29:26;;;;;;;;;;;;;;;;;;5010110;28;20012;-68
2021/10/31 04:31:52;;;;;;;;;;;;;;;;;;5017339;28;19925;-69
2021/10/31 04:34:19;;;;;;;;;;;;;;;;;;5010983;28;20329;-68
2021/10/31 04:36:46;;;;;;;;;;;;;;;;;;5011264;28;19925;-70
2021/10/31 04:39:13;;;;;;;;;;;;;;;;;;5007611;28;19929;-66
2021/10/31 04:41:43;;;;;;;;;;;;;;;;;;5012273;28;19926;-71
2021/10/31 04:44:10;;;;;;;;;;;;;;;;;;5012827;28;20012;-69
2021/10/31 04:46:37;;;;;;;;;;;;;;;;;;5014786;28;19926;-69
2021/10/31 04:49:04;;;;;;;;;;;;;;;;;;5013641;28;19925;-69
2021/10/31 04:51:31;;;;;;;;;;;;;;;;;;5009959;28;20416;-68
2021/10/31 04:53:58;;;;;;;;;;;;;;;;;;5007096;28;19925;-70
2021/10/31 04:56:25;;;;;;;;;;;;;;;;;;5012777;28;19925;-69
2021/10/31 04:58:52;;;;;;;;;;;;;;;;;;5012941;28;19933;-68
2021/10/31 05:01:19;;;;;;;;;;;;;;;;;;5012139;28;19937;-69
2021/10/31 05:03:46;;;;;;;;;;;;;;;;;;5011313;28;20389;-68
2021/10/31 05:06:13;;;;;;;;;;;;;;;;;;5011600;28;19932;-70
2021/10/31 05:08:40;;;;;;;;;;;;;;;;;;5013158;28;20513;-68
2021/10/31 05:11:07;;;;;;;;;;;;;;;;;;5014875;28;19925;-68
2021/10/31 05:13:34;;;;;;;;;;;;;;;;;;5014457;28;19987;-68
2021/10/31 05:16:01;;;;;;;;;;;;;;;;;;5012748;28;20297;-68
2021/10/31 05:18:28;;;;;;;;;;;;;;;;;;5010348;28;20377;-67
2021/10/31 05:20:55;;;;;;;;;;;;;;;;;;5017835;28;19925;-69
2021/10/31 05:23:22;;;;;;;;;;;;;;;;;;5010935;28;19933;-69
2021/10/31 05:25:49;;;;;;;;;;;;;;;;;;5016258;28;19947;-69
2021/10/31 05:28:16;;;;;;;;;;;;;;;;;;5013264;28;19936;-68
2021/10/31 05:30:43;;;;;;;;;;;;;;;;;;5013921;28;19932;-69
2021/10/31 05:33:10;;;;;;;;;;;;;;;;;;5009034;28;19961;-70
2021/10/31 05:35:37;;;;;;;;;;;;;;;;;;5015984;28;20294;-70
2021/10/31 05:38:05;;;;;;;;;;;;;;;;;;5010209;28;19926;-69
2021/10/31 05:40:32;;;;;;;;;;;;;;;;;;5010485;28;19925;-70
2021/10/31 05:42:59;;;;;;;;;;;;;;;;;;5013772;28;19940;-69
2021/10/31 05:45:26;;;;;;;;;;;;;;;;;;5008635;28;19929;-70
2021/10/31 05:47:53;;;;;;;;;;;;;;;;;;5021261;28;20024;-68
2021/10/31 05:50:20;;;;;;;;;;;;;;;;;;5012901;28;19929;-69
2021/10/31 05:52:47;;;;;;;;;;;;;;;;;;5013258;28;20459;-70
2021/10/31 05:55:14;;;;;;;;;;;;;;;;;;5009346;28;19926;-68
2021/10/31 05:57:40;;;;;;;;;;;;;;;;;;5014091;28;19926;-68
2021/10/31 06:00:07;;;;;;;;;;;;;;;;;;5008227;28;20445;-68
2021/10/31 06:02:34;;;;;;;;;;;;;;;;;;5017747;28;19944;-67
2021/10/31 06:05:01;;;;;;;;;;;;;;;;;;5013984;28;19960;-68
2021/10/31 06:07:28;;;;;;;;;;;;;;;;;;5024107;28;19929;-69
2021/10/31 06:09:55;;;;;;;;;;;;;;;;;;5023633;28;20404;-67
2021/10/31 06:12:22;;;;;;;;;;;;;;;;;;5013524;28;19926;-71
2021/10/31 06:14:49;;;;;;;;;;;;;;;;;;5009082;28;19933;-70
2021/10/31 06:17:16;;;;;;;;;;;;;;;;;;5019708;28;19925;-69
2021/10/31 06:19:43;;;;;;;;;;;;;;;;;;5012566;28;19932;-69
2021/10/31 06:22:10;;;;;;;;;;;;;;;;;;5012386;28;20301;-69
2021/10/31 06:24:37;;;;;;;;;;;;;;;;;;5017407;28;20375;-69
2021/10/31 06:27:04;;;;;;;;;;;;;;;;;;5013254;28;20450;-70
2021/10/31 06:29:31;;;;;;;;;;;;;;;;;;5016236;28;19925;-69
2021/10/31 06:31:58;;;;;;;;;;;;;;;;;;5019937;28;19947;-68
2021/10/31 06:34:25;;;;;;;;;;;;;;;;;;5018109;28;20305;-68
2021/10/31 06:36:52;;;;;;;;;;;;;;;;;;5016729;28;19925;-69
2021/10/31 06:39:19;;;;;;;;;;;;;;;;;;5018654;28;19929;-68
2021/10/31 06:41:46;;;;;;;;;;;;;;;;;;5013990;28;19949;-70
2021/10/31 06:44:13;;;;;;;;;;;;;;;;;;5011542;28;19929;-68
2021/10/31 06:46:39;;;;;;;;;;;;;;;;;;5009252;28;20016;-68
2021/10/31 06:49:09;;;;;;;;;;;;;;;;;;5018647;28;19926;-68
2021/10/31 06:51:36;;;;;;;;;;;;;;;;;;5021112;28;20118;-70
2021/10/31 06:54:03;;;;;;;;;;;;;;;;;;5020717;28;19926;-70
2021/10/31 06:56:30;;;;;;;;;;;;;;;;;;5013117;28;19926;-69
2021/10/31 06:58:58;;;;;;;;;;;;;;;;;;5012299;28;19947;-68
2021/10/31 07:01:25;;;;;;;;;;;;;;;;;;5009406;28;20012;-69
2021/10/31 07:03:52;;;;;;;;;;;;;;;;;;5013915;28;19984;-69
2021/10/31 07:06:19;;;;;;;;;;;;;;;;;;5016752;28;19929;-69
2021/10/31 07:08:46;;;;;;;;;;;;;;;;;;5010150;28;19929;-68
2021/10/31 07:11:13;;;;;;;;;;;;;;;;;;5013895;28;19933;-69
2021/10/31 07:13:39;;;;;;;;;;;;;;;;;;5014227;28;19948;-68
2021/10/31 07:16:06;;;;;;;;;;;;;;;;;;5013669;28;20024;-69
2021/10/31 07:18:33;;;;;;;;;;;;;;;;;;5014915;28;19926;-69
2021/10/31 07:21:01;;;;;;;;;;;;;;;;;;5018665;28;20220;-68
2021/10/31 07:23:28;;;;;;;;;;;;;;;;;;5010092;28;19926;-69
2021/10/31 07:25:55;;;;;;;;;;;;;;;;;;5012989;28;20363;-69
2021/10/31 07:28:22;;;;;;;;;;;;;;;;;;5015886;28;20016;-68
2021/10/31 07:30:49;;;;;;;;;;;;;;;;;;5015124;28;20389;-68
2021/10/31 07:33:16;;;;;;;;;;;;;;;;;;5012597;28;20313;-68
2021/10/31 07:35:43;;;;;;;;;;;;;;;;;;5014391;28;19936;-68
2021/10/31 07:38:11;;;;;;;;;;;;;;;;;;5016908;28;19933;-67
2021/10/31 07:40:38;;;;;;;;;;;;;;;;;;5018892;28;20284;-68
2021/10/31 07:43:05;;;;;;;;;;;;;;;;;;5013619;28;20021;-67
2021/10/31 07:45:32;;;;;;;;;;;;;;;;;;5014214;28;19925;-69
2021/10/31 07:48:00;;;;;;;;;;;;;;;;;;5014207;28;20468;-69
2021/10/31 07:50:33;;;;;;;;;;;;;;;;;;5015109;28;19936;-68
2021/10/31 07:53:00;;;;;;;;;;;;;;;;;;5010054;28;19925;-69
2021/10/31 07:55:30;;;;;;;;;;;;;;;;;;5012635;28;19976;-69
2021/10/31 07:57:57;;;;;;;;;;;;;;;;;;5012298;28;20275;-68
2021/10/31 08:00:24;;;;;;;;;;;;;;;;;;5007657;28;19934;-68
2021/10/31 08:02:51;;;;;;;;;;;;;;;;;;5012111;28;19926;-69
2021/10/31 08:05:18;;;;;;;;;;;;;;;;;;5010457;28;19925;-67
2021/10/31 08:07:45;;;;;;;;;;;;;;;;;;5013302;28;19968;-67
2021/10/31 08:10:12;;;;;;;;;;;;;;;;;;5011208;28;19947;-67
2021/10/31 08:12:39;;;;;;;;;;;;;;;;;;5011990;28;19933;-67
2021/10/31 08:15:06;;;;;;;;;;;;;;;;;;5012404;28;19936;-67
2021/10/31 08:17:33;;;;;;;;;;;;;;;;;;5013852;28;19925;-68
2021/10/31 08:20:00;;;;;;;;;;;;;;;;;;5015337;28;19929;-67
2021/10/31 08:22:28;;;;;;;;;;;;;;;;;;5014099;28;19932;-68
2021/10/31 08:24:55;;;;;;;;;;;;;;;;;;5011877;28;19937;-67
2021/10/31 08:27:21;;;;;;;;;;;;;;;;;;5016017;28;19948;-67
2021/10/31 08:29:50;;;;;;;;;;;;;;;;;;5010058;28;19933;-67
2021/10/31 08:32:17;;;;;;;;;;;;;;;;;;5011455;28;19929;-69
2021/10/31 08:34:44;;;;;;;;;;;;;;;;;;5008431;28;19926;-69
2021/10/31 08:37:11;;;;;;;;;;;;;;;;;;5005521;28;20366;-69
2021/10/31 08:39:38;;;;;;;;;;;;;;;;;;5015173;28;20012;-69
2021/10/31 08:42:05;;;;;;;;;;;;;;;;;;5017095;28;19926;-69
2021/10/31 08:44:32;;;;;;;;;;;;;;;;;;5011329;28;19936;-70
2021/10/31 08:46:59;;;;;;;;;;;;;;;;;;5009667;28;19925;-67
2021/10/31 08:49:25;;;;;;;;;;;;;;;;;;5009467;28;19925;-68
2021/10/31 08:51:52;;;;;;;;;;;;;;;;;;5007250;28;19968;-68
2021/10/31 08:54:20;;;;;;;;;;;;;;;;;;5012489;28;19926;-67
2021/10/31 08:56:47;;;;;;;;;;;;;;;;;;4999814;28;20806;-68
2021/10/31 08:59:14;;;;;;;;;;;;;;;;;;5007118;28;19930;-67
2021/10/31 09:01:41;;;;;;;;;;;;;;;;;;5001928;28;20404;-68
2021/10/31 09:04:08;;;;;;;;;;;;;;;;;;5010104;28;19932;-68
2021/10/31 09:06:35;;;;;;;;;;;;;;;;;;5009561;28;20370;-68
2021/10/31 09:09:02;;;;;;;;;;;;;;;;;;5015371;28;19932;-68
2021/10/31 09:11:29;;;;;;;;;;;;;;;;;;5011935;28;19932;-68
2021/10/31 09:13:56;;;;;;;;;;;;;;;;;;5008756;28;19938;-69
2021/10/31 09:16:23;;;;;;;;;;;;;;;;;;5016401;28;19932;-68
2021/10/31 09:18:50;;;;;;;;;;;;;;;;;;5010771;28;20297;-68
2021/10/31 09:21:18;;;;;;;;;;;;;;;;;;5011589;28;19933;-67
2021/10/31 09:23:45;;;;;;;;;;;;;;;;;;5006173;28;20389;-67
2021/10/31 09:26:12;;;;;;;;;;;;;;;;;;5007988;28;19933;-68
2021/10/31 09:28:38;;;;;;;;;;;;;;;;;;5009997;28;19932;-68
2021/10/31 09:31:05;;;;;;;;;;;;;;;;;;5017907;28;19925;-68
2021/10/31 09:33:34;;;;;;;;;;;;;;;;;;5008125;28;19933;-67
2021/10/31 09:36:01;;;;;;;;;;;;;;;;;;5007307;28;19925;-68
2021/10/31 09:38:31;;;;;;;;;;;;;;;;;;5015460;28;19931;-68
2021/10/31 09:40:58;;;;;;;;;;;;;;;;;;5009239;28;19941;-68
2021/10/31 09:43:28;;;;;;;;;;;;;;;;;;5006399;28;19940;-68
2021/10/31 09:45:55;;;;;;;;;;;;;;;;;;5010937;28;19944;-69
2021/10/31 09:48:22;;;;;;;;;;;;;;;;;;5009442;28;19934;-68
2021/10/31 09:50:49;;;;;;;;;;;;;;;;;;5009969;28;20079;-68
2021/10/31 09:53:16;;;;;;;;;;;;;;;;;;5009906;28;19940;-68
2021/10/31 09:55:43;;;;;;;;;;;;;;;;;;5024867;28;20192;-68
2021/10/31 09:58:17;;;;;;;;;;;;;;;;;;5015049;28;20313;-68
2021/10/31 10:00:44;;;;;;;;;;;;;;;;;;5010391;28;19965;-68
2021/10/31 10:03:21;;;;;;;;;;;;;;;;;;5014165;28;20413;-69
2021/10/31 10:05:48;;;;;;;;;;;;;;;;;;5019610;28;19984;-69
2021/10/31 10:08:15;;;;;;;;;;;;;;;;;;5018010;28;20386;-68
2021/10/31 10:10:42;;;;;;;;;;;;;;;;;;5016039;28;19929;-70
2021/10/31 10:13:09;;;;;;;;;;;;;;;;;;5011121;28;19925;-69
2021/10/31 10:15:36;;;;;;;;;;;;;;;;;;5013825;28;20265;-68
2021/10/31 10:18:03;;;;;;;;;;;;;;;;;;5015099;28;19932;-69
2021/10/31 10:20:30;;;;;;;;;;;;;;;;;;5017943;28;19925;-69
2021/10/31 10:22:57;;;;;;;;;;;;;;;;;;5019562;28;19933;-70
2021/10/31 10:25:24;;;;;;;;;;;;;;;;;;5022421;28;19964;-70
2021/10/31 10:27:51;;;;;;;;;;;;;;;;;;5025208;28;20020;-69
2021/10/31 10:30:18;;;;;;;;;;;;;;;;;;5016316;28;20032;-69
2021/10/31 10:32:45;;;;;;;;;;;;;;;;;;5018725;28;19973;-69
2021/10/31 10:35:12;;;;;;;;;;;;;;;;;;5022628;28;19932;-69
2021/10/31 10:37:39;;;;;;;;;;;;;;;;;;5026710;28;19943;-70
2021/10/31 10:40:06;;;;;;;;;;;;;;;;;;5021240;28;19932;-69
2021/10/31 10:42:33;;;;;;;;;;;;;;;;;;5018876;28;20342;-69
2021/10/31 10:45:01;;;;;;;;;;;;;;;;;;5019097;28;19925;-69
2021/10/31 10:47:28;;;;;;;;;;;;;;;;;;5019862;28;20373;-69
2021/10/31 10:49:55;;;;;;;;;;;;;;;;;;5016633;28;19925;-68
2021/10/31 10:52:23;;;;;;;;;;;;;;;;;;5019053;28;19929;-68
2021/10/31 10:54:50;;;;;;;;;;;;;;;;;;5014392;28;19944;-70
2021/10/31 10:57:17;;;;;;;;;;;;;;;;;;5015090;28;19959;-69
2021/10/31 10:59:44;;;;;;;;;;;;;;;;;;5023957;28;19932;-70
2021/10/31 11:02:11;;;;;;;;;;;;;;;;;;5015077;28;19932;-69
2021/10/31 11:04:38;;;;;;;;;;;;;;;;;;5018682;28;19968;-68
2021/10/31 11:07:04;;;;;;;;;;;;;;;;;;5021009;28;19932;-68
2021/10/31 11:09:31;;;;;;;;;;;;;;;;;;5022777;28;19956;-69
2021/10/31 11:11:58;;;;;;;;;;;;;;;;;;5020100;28;19925;-69
2021/10/31 11:14:25;;;;;;;;;;;;;;;;;;5022816;28;19932;-68
2021/10/31 11:16:52;;;;;;;;;;;;;;;;;;5009119;28;20242;-68
2021/10/31 11:19:19;;;;;;;;;;;;;;;;;;5019259;28;19925;-70
2021/10/31 11:21:48;;;;;;;;;;;;;;;;;;5009776;28;19925;-68
2021/10/31 11:24:15;;;;;;;;;;;;;;;;;;5010498;28;19979;-68
2021/10/31 11:26:42;;;;;;;;;;;;;;;;;;5017874;28;20385;-68
2021/10/31 11:29:09;;;;;;;;;;;;;;;;;;5015543;28;19925;-68
2021/10/31 11:31:36;;;;;;;;;;;;;;;;;;5016039;28;19932;-69
2021/10/31 11:34:03;;;;;;;;;;;;;;;;;;5021880;28;20385;-68
2021/10/31 11:36:30;;;;;;;;;;;;;;;;;;5019048;28;19926;-68
2021/10/31 11:38:57;;;;;;;;;;;;;;;;;;5015248;28;20016;-68
2021/10/31 11:41:30;;;;;;;;;;;;;;;;;;5020471;28;20358;-69
2021/10/31 11:43:57;;;;;;;;;;;;;;;;;;5022399;28;19996;-68
2021/10/31 11:46:24;;;;;;;;;;;;;;;;;;5018348;28;19926;-68
2021/10/31 11:48:51;;;;;;;;;;;;;;;;;;5013213;28;20396;-69
2021/10/31 11:51:17;;;;;;;;;;;;;;;;;;5017451;28;19929;-68
2021/10/31 11:53:45;;;;;;;;;;;;;;;;;;5021165;28;19925;-68
2021/10/31 11:56:12;;;;;;;;;;;;;;;;;;5021818;28;19926;-68
2021/10/31 11:58:41;;;;;;;;;;;;;;;;;;5018196;28;19926;-69
2021/10/31 12:01:08;;;;;;;;;;;;;;;;;;5013997;28;20313;-68
2021/10/31 12:03:35;;;;;;;;;;;;;;;;;;5016844;28;20271;-69
2021/10/31 12:06:02;;;;;;;;;;;;;;;;;;5021685;28;19932;-70
2021/10/31 12:08:29;;;;;;;;;;;;;;;;;;5016323;28;19968;-69
2021/10/31 12:10:56;;;;;;;;;;;;;;;;;;5011545;28;20448;-69
2021/10/31 12:13:23;;;;;;;;;;;;;;;;;;5019738;28;19929;-69
2021/10/31 12:15:50;;;;;;;;;;;;;;;;;;5013557;28;20016;-68
2021/10/31 12:18:17;;;;;;;;;;;;;;;;;;5018145;28;19969;-69
2021/10/31 12:20:44;;;;;;;;;;;;;;;;;;5023219;28;19925;-67
2021/10/31 12:23:11;;;;;;;;;;;;;;;;;;5021517;28;19926;-69
2021/10/31 12:25:38;;;;;;;;;;;;;;;;;;5019618;28;20386;-69
2021/10/31 12:28:06;;;;;;;;;;;;;;;;;;5015340;28;21331;-68
2021/10/31 12:30:37;;;;;;;;;;;;;;;;;;5011608;28;20286;-69
2021/10/31 12:33:05;;;;;;;;;;;;;;;;;;5016977;28;19932;-69
2021/10/31 12:35:32;;;;;;;;;;;;;;;;;;5013078;28;20004;-70
2021/10/31 12:37:59;;;;;;;;;;;;;;;;;;5016979;28;19932;-69
2021/10/31 12:40:26;;;;;;;;;;;;;;;;;;5018803;28;19929;-70
2021/10/31 12:42:56;;;;;;;;;;;;;;;;;;5020900;28;19925;-68
2021/10/31 12:45:23;;;;;;;;;;;;;;;;;;5011220;28;20362;-71
2021/10/31 12:47:54;;;;;;;;;;;;;;;;;;5015320;28;19929;-70
2021/10/31 12:50:21;;;;;;;;;;;;;;;;;;5012921;28;19933;-69
2021/10/31 12:52:48;;;;;;;;;;;;;;;;;;5010981;28;19929;-69
2021/10/31 12:55:15;;;;;;;;;;;;;;;;;;5006198;28;19925;-70
2021/10/31 12:57:42;;;;;;;;;;;;;;;;;;5004632;28;21500;-70
2021/10/31 13:00:09;;;;;;;;;;;;;;;;;;5011556;28;19932;-69
2021/10/31 13:02:36;;;;;;;;;;;;;;;;;;5007072;28;19933;-67
2021/10/31 13:05:03;;;;;;;;;;;;;;;;;;5010874;28;19926;-67
2021/10/31 13:07:30;;;;;;;;;;;;;;;;;;5010594;28;19925;-68
2021/10/31 13:09:57;;;;;;;;;;;;;;;;;;5013494;28;19925;-68
2021/10/31 13:12:24;;;;;;;;;;;;;;;;;;5005981;28;19932;-69
2021/10/31 13:14:51;;;;;;;;;;;;;;;;;;5012057;28;19925;-68
2021/10/31 13:17:18;;;;;;;;;;;;;;;;;;5011798;28;19936;-68
2021/10/31 13:19:46;;;;;;;;;;;;;;;;;;5008312;28;20362;-67
2021/10/31 13:22:13;;;;;;;;;;;;;;;;;;5012848;28;19929;-69
2021/10/31 13:24:40;;;;;;;;;;;;;;;;;;5009085;28;19999;-68
2021/10/31 13:27:07;;;;;;;;;;;;;;;;;;5012017;28;20055;-67
2021/10/31 13:29:34;;;;;;;;;;;;;;;;;;5007951;28;19925;-68
2021/10/31 13:32:01;;;;;;;;;;;;;;;;;;5006929;28;19935;-70
2021/10/31 13:34:28;;;;;;;;;;;;;;;;;;5006634;28;19929;-69
2021/10/31 13:36:55;;;;;;;;;;;;;;;;;;5005365;28;20024;-69
2021/10/31 13:39:24;;;;;;;;;;;;;;;;;;5013597;28;19929;-66
2021/10/31 13:41:53;;;;;;;;;;;;;;;;;;5011440;28;20013;-69
2021/10/31 13:44:19;;;;;;;;;;;;;;;;;;5021066;28;19925;-69
2021/10/31 13:49:28;;;;;;;;;;;;;;;;;;5025548;28;20440;-68
2021/10/31 13:51:55;;;;;;;;;;;;;;;;;;5010518;28;19925;-69
2021/10/31 13:54:21;;;;;;;;;;;;;;;;;;5014623;28;19933;-67
2021/10/31 13:56:49;;;;;;;;;;;;;;;;;;5009195;28;19936;-68
2021/10/31 13:59:16;;;;;;;;;;;;;;;;;;5011299;28;19925;-68
2021/10/31 14:01:43;;;;;;;;;;;;;;;;;;5010509;28;20028;-69
2021/10/31 14:04:10;;;;;;;;;;;;;;;;;;5008339;28;20004;-68
2021/10/31 14:06:37;;;;;;;;;;;;;;;;;;5010884;28;19926;-67
2021/10/31 14:09:04;;;;;;;;;;;;;;;;;;5015518;28;19926;-68
2021/10/31 14:11:32;;;;;;;;;;;;;;;;;;5010699;28;20293;-69
2021/10/31 14:13:59;;;;;;;;;;;;;;;;;;5010004;28;19926;-69
2021/10/31 14:16:28;;;;;;;;;;;;;;;;;;5011004;28;19941;-67
2021/10/31 14:18:56;;;;;;;;;;;;;;;;;;5009938;28;19932;-68
2021/10/31 14:21:23;;;;;;;;;;;;;;;;;;5005014;28;19944;-67
2021/10/31 14:23:50;;;;;;;;;;;;;;;;;;5005953;28;19965;-69
2021/10/31 14:26:19;;;;;;;;;;;;;;;;;;5011780;28;20422;-68
2021/10/31 14:28:46;;;;;;;;;;;;;;;;;;5009258;28;19983;-69
2021/10/31 14:31:13;;;;;;;;;;;;;;;;;;5013655;28;20408;-68
2021/10/31 14:33:40;;;;;;;;;;;;;;;;;;5005825;28;20008;-68
2021/10/31 14:36:08;;;;;;;;;;;;;;;;;;5000197;28;20032;-69
2021/10/31 14:38:35;;;;;;;;;;;;;;;;;;5001630;28;19925;-69
2021/10/31 14:41:02;;;;;;;;;;;;;;;;;;5004575;28;19929;-68
2021/10/31 14:43:29;;;;;;;;;;;;;;;;;;5005240;28;19940;-67
2021/10/31 14:45:56;;;;;;;;;;;;;;;;;;5008248;28;19937;-69
2021/10/31 14:48:23;;;;;;;;;;;;;;;;;;5007627;28;19925;-71
2021/10/31 14:50:50;;;;;;;;;;;;;;;;;;5007643;28;20467;-68
2021/10/31 14:53:17;;;;;;;;;;;;;;;;;;5007017;28;19930;-67
2021/10/31 14:55:44;;;;;;;;;;;;;;;;;;5012015;28;19925;-69
2021/10/31 14:58:12;;;;;;;;;;;;;;;;;;5009576;28;19933;-68
2021/10/31 15:00:40;;;;;;;;;;;;;;;;;;5006582;28;19926;-67
2021/10/31 15:03:07;;;;;;;;;;;;;;;;;;5012254;28;19932;-68
2021/10/31 15:05:34;;;;;;;;;;;;;;;;;;5007896;28;19926;-68
2021/10/31 15:08:01;;;;;;;;;;;;;;;;;;5004439;28;19977;-70
2021/10/31 15:10:29;;;;;;;;;;;;;;;;;;5010594;28;19929;-67
2021/10/31 15:12:56;;;;;;;;;;;;;;;;;;5010862;28;19932;-69
2021/10/31 15:15:23;;;;;;;;;;;;;;;;;;5009784;28;19933;-68
2021/10/31 15:17:50;;;;;;;;;;;;;;;;;;5007882;28;20373;-68
2021/10/31 15:20:18;;;;;;;;;;;;;;;;;;5007000;28;19938;-69
2021/10/31 15:22:49;;;;;;;;;;;;;;;;;;5007345;28;20021;-68
2021/10/31 15:25:16;;;;;;;;;;;;;;;;;;5009938;28;19925;-69
2021/10/31 15:27:43;;;;;;;;;;;;;;;;;;5009222;28;19930;-70
2021/10/31 15:30:10;;;;;;;;;;;;;;;;;;5009568;28;19933;-70
2021/10/31 15:32:37;;;;;;;;;;;;;;;;;;5003308;28;19932;-68
2021/10/31 15:35:04;;;;;;;;;;;;;;;;;;5007114;28;20304;-69
2021/10/31 15:37:31;;;;;;;;;;;;;;;;;;5008205;28;19929;-68
2021/10/31 15:39:59;;;;;;;;;;;;;;;;;;5004308;28;20071;-68
2021/10/31 15:42:26;;;;;;;;;;;;;;;;;;5006860;28;19973;-69
2021/10/31 15:44:53;;;;;;;;;;;;;;;;;;5045185;23;20015;-53
2021/10/31 15:47:21;;;;;;;;;;;;;;;;;;5036849;28;19980;-56
2021/10/31 15:49:48;;;;;;;;;;;;;;;;;;5033691;28;20393;-58
2021/10/31 15:52:16;;;;;;;;;;;;;;;;;;5030011;28;19931;-58
2021/10/31 15:54:43;;;;;;;;;;;;;;;;;;5034661;28;19964;-58
2021/10/31 15:57:10;;;;;;;;;;;;;;;;;;5035641;28;19925;-60
2021/10/31 15:59:37;;;;;;;;;;;;;;;;;;5032634;28;19932;-59
2021/10/31 16:02:07;;;;;;;;;;;;;;;;;;5035252;28;19925;-59
2021/10/31 16:04:34;;;;;;;;;;;;;;;;;;5027412;28;19925;-59
2021/10/31 16:07:01;;;;;;;;;;;;;;;;;;5034313;28;19936;-60
2021/10/31 16:09:29;;;;;;;;;;;;;;;;;;5031107;28;20032;-59
2021/10/31 16:11:58;;;;;;;;;;;;;;;;;;5031877;28;19932;-60
2021/10/31 16:14:26;;;;;;;;;;;;;;;;;;5028989;28;20348;-60
2021/10/31 16:16:53;;;;;;;;;;;;;;;;;;5027420;28;19967;-58
2021/10/31 16:19:20;;;;;;;;;;;;;;;;;;5031160;28;19933;-60
2021/10/31 16:21:47;;;;;;;;;;;;;;;;;;5027867;28;20373;-60
2021/10/31 16:24:14;;;;;;;;;;;;;;;;;;5025574;28;20016;-60
2021/10/31 16:26:41;;;;;;;;;;;;;;;;;;5028972;28;19929;-60
2021/10/31 16:29:08;;;;;;;;;;;;;;;;;;5033595;28;19948;-60
2021/10/31 16:31:36;;;;;;;;;;;;;;;;;;5036799;28;19931;-59
2021/10/31 16:34:03;;;;;;;;;;;;;;;;;;5037988;28;19936;-59
2021/10/31 16:36:30;;;;;;;;;;;;;;;;;;5033184;28;19925;-59
2021/10/31 16:38:57;;;;;;;;;;;;;;;;;;5026054;28;19926;-58
2021/10/31 16:41:30;;;;;;;;;;;;;;;;;;5031993;28;19929;-58
2021/10/31 16:43:57;;;;;;;;;;;;;;;;;;5030921;28;19925;-60
2021/10/31 16:46:24;;;;;;;;;;;;;;;;;;5031426;28;20011;-60
2021/10/31 16:48:51;;;;;;;;;;;;;;;;;;5036837;28;19992;-60